sensor_id;sensor_type;location;lat;lon;timestamp;pressure;altitude;pressure_sealevel;temperature;humidity
23321;BME280;33376;51.306;4.752;2023-07-08T00:00:00;101448.44;;;19.18;100.00
23321;BME280;33376;51.306;4.752;2023-07-08T00:02:25;101437.13;;;19.15;100.00
23321;BME280;33376;51.306;4.752;2023-07-08T00:04:50;101425.03;;;18.98;100.00
23321;BME280;33376;51.306;4.752;2023-07-08T00:07:16;101403.63;;;19.08;100.00
23321;BME280;33376;51.306;4.752;2023-07-08T00:09:44;101402.53;;;18.99;100.00
23321;BME280;33376;51.306;4.752;2023-07-08T00:12:10;101391.66;;;18.89;100.00
23321;BME280;33376;51.306;4.752;2023-07-08T00:14:36;101366.00;;;18.97;100.00
23321;BME280;33376;51.306;4.752;2023-07-08T00:17:01;101372.50;;;18.83;100.00
23321;BME280;33376;51.306;4.752;2023-07-08T00:19:27;101363.72;;;18.70;100.00
23321;BME280;33376;51.306;4.752;2023-07-08T00:21:52;101356.88;;;18.66;100.00
23321;BME280;33376;51.306;4.752;2023-07-08T00:24:17;101351.50;;;18.77;100.00
23321;BME280;33376;51.306;4.752;2023-07-08T00:26:43;101349.53;;;18.79;100.00
23321;BME280;33376;51.306;4.752;2023-07-08T00:29:08;101355.28;;;18.74;100.00
23321;BME280;33376;51.306;4.752;2023-07-08T00:31:34;101350.16;;;18.71;100.00
23321;BME280;33376;51.306;4.752;2023-07-08T00:33:59;101355.88;;;18.45;100.00
23321;BME280;33376;51.306;4.752;2023-07-08T00:36:28;101348.19;;;18.40;100.00
23321;BME280;33376;51.306;4.752;2023-07-08T00:38:53;101364.41;;;18.28;100.00
23321;BME280;33376;51.306;4.752;2023-07-08T00:41:35;101368.41;;;18.33;100.00
23321;BME280;33376;51.306;4.752;2023-07-08T00:44:03;101373.06;;;18.31;100.00
23321;BME280;33376;51.306;4.752;2023-07-08T00:51:27;101359.16;;;18.26;100.00
23321;BME280;33376;51.306;4.752;2023-07-08T00:53:53;101367.81;;;18.19;100.00
23321;BME280;33376;51.306;4.752;2023-07-08T00:56:23;101379.97;;;18.12;100.00
23321;BME280;33376;51.306;4.752;2023-07-08T00:58:51;101395.16;;;17.89;100.00
23321;BME280;33376;51.306;4.752;2023-07-08T01:01:19;101385.81;;;17.95;100.00
23321;BME280;33376;51.306;4.752;2023-07-08T01:03:49;101370.31;;;17.98;100.00
23321;BME280;33376;51.306;4.752;2023-07-08T01:06:18;101357.97;;;17.96;100.00
23321;BME280;33376;51.306;4.752;2023-07-08T01:08:45;101345.44;;;17.96;100.00
23321;BME280;33376;51.306;4.752;2023-07-08T01:11:10;101345.91;;;17.90;100.00
23321;BME280;33376;51.306;4.752;2023-07-08T01:13:37;101332.13;;;17.84;100.00
23321;BME280;33376;51.306;4.752;2023-07-08T01:16:05;101327.06;;;17.79;100.00
23321;BME280;33376;51.306;4.752;2023-07-08T01:18:31;101328.19;;;17.77;100.00
23321;BME280;33376;51.306;4.752;2023-07-08T01:21:00;101329.44;;;17.84;100.00
23321;BME280;33376;51.306;4.752;2023-07-08T01:23:25;101329.28;;;17.74;100.00
23321;BME280;33376;51.306;4.752;2023-07-08T01:25:50;101322.91;;;17.64;100.00
23321;BME280;33376;51.306;4.752;2023-07-08T01:28:16;101318.44;;;17.52;100.00
23321;BME280;33376;51.306;4.752;2023-07-08T01:30:42;101313.97;;;17.52;100.00
23321;BME280;33376;51.306;4.752;2023-07-08T01:33:12;101301.06;;;17.58;100.00
23321;BME280;33376;51.306;4.752;2023-07-08T01:35:40;101306.66;;;17.55;100.00
23321;BME280;33376;51.306;4.752;2023-07-08T01:38:05;101295.00;;;17.43;100.00
23321;BME280;33376;51.306;4.752;2023-07-08T01:40:35;101293.25;;;17.31;100.00
23321;BME280;33376;51.306;4.752;2023-07-08T01:43:00;101292.75;;;17.49;100.00
23321;BME280;33376;51.306;4.752;2023-07-08T01:45:27;101288.84;;;17.53;100.00
23321;BME280;33376;51.306;4.752;2023-07-08T01:47:59;101289.72;;;17.30;100.00
23321;BME280;33376;51.306;4.752;2023-07-08T01:50:26;101278.13;;;17.30;100.00
23321;BME280;33376;51.306;4.752;2023-07-08T01:52:52;101272.25;;;17.25;100.00
23321;BME280;33376;51.306;4.752;2023-07-08T01:55:22;101270.31;;;17.27;100.00
23321;BME280;33376;51.306;4.752;2023-07-08T01:57:50;101253.44;;;17.14;100.00
23321;BME280;33376;51.306;4.752;2023-07-08T02:00:15;101258.66;;;17.04;100.00
23321;BME280;33376;51.306;4.752;2023-07-08T02:02:41;101241.91;;;17.13;100.00
23321;BME280;33376;51.306;4.752;2023-07-08T02:05:06;101231.19;;;17.13;100.00
23321;BME280;33376;51.306;4.752;2023-07-08T02:07:31;101212.88;;;17.07;100.00
23321;BME280;33376;51.306;4.752;2023-07-08T02:09:56;101199.69;;;17.04;100.00
23321;BME280;33376;51.306;4.752;2023-07-08T02:12:22;101201.66;;;17.02;100.00
23321;BME280;33376;51.306;4.752;2023-07-08T02:14:47;101196.06;;;17.05;100.00
23321;BME280;33376;51.306;4.752;2023-07-08T02:17:12;101176.69;;;17.02;100.00
23321;BME280;33376;51.306;4.752;2023-07-08T02:19:41;101145.25;;;16.93;100.00
23321;BME280;33376;51.306;4.752;2023-07-08T02:22:06;101126.66;;;16.79;100.00
23321;BME280;33376;51.306;4.752;2023-07-08T02:24:32;101114.16;;;16.79;100.00
23321;BME280;33376;51.306;4.752;2023-07-08T02:26:57;101098.22;;;16.89;100.00
23321;BME280;33376;51.306;4.752;2023-07-08T02:29:22;101093.94;;;16.75;100.00
23321;BME280;33376;51.306;4.752;2023-07-08T02:31:48;101094.53;;;16.79;100.00
23321;BME280;33376;51.306;4.752;2023-07-08T02:34:13;101084.88;;;16.65;100.00
23321;BME280;33376;51.306;4.752;2023-07-08T02:36:38;101062.72;;;16.63;100.00
23321;BME280;33376;51.306;4.752;2023-07-08T02:39:04;101055.03;;;16.59;100.00
23321;BME280;33376;51.306;4.752;2023-07-08T02:41:29;101049.53;;;16.49;100.00
23321;BME280;33376;51.306;4.752;2023-07-08T02:43:54;101026.91;;;16.53;100.00
23321;BME280;33376;51.306;4.752;2023-07-08T02:46:19;101017.06;;;16.54;100.00
23321;BME280;33376;51.306;4.752;2023-07-08T02:48:45;101017.19;;;16.52;100.00
23321;BME280;33376;51.306;4.752;2023-07-08T02:51:10;101008.84;;;16.44;100.00
23321;BME280;33376;51.306;4.752;2023-07-08T02:53:35;100994.00;;;16.40;100.00
23321;BME280;33376;51.306;4.752;2023-07-08T02:56:00;100987.28;;;16.35;100.00
23321;BME280;33376;51.306;4.752;2023-07-08T02:58:26;100978.63;;;16.31;100.00
23321;BME280;33376;51.306;4.752;2023-07-08T03:00:52;100947.50;;;16.30;100.00
23321;BME280;33376;51.306;4.752;2023-07-08T03:03:17;100940.06;;;16.23;100.00
23321;BME280;33376;51.306;4.752;2023-07-08T03:05:42;100926.06;;;16.19;100.00
23321;BME280;33376;51.306;4.752;2023-07-08T03:08:07;100898.41;;;16.07;100.00
23321;BME280;33376;51.306;4.752;2023-07-08T03:10:33;100886.97;;;16.05;100.00
23321;BME280;33376;51.306;4.752;2023-07-08T03:12:58;100891.84;;;16.11;100.00
23321;BME280;33376;51.306;4.752;2023-07-08T03:15:23;100896.13;;;16.14;100.00
23321;BME280;33376;51.306;4.752;2023-07-08T03:17:48;100891.03;;;16.11;100.00
23321;BME280;33376;51.306;4.752;2023-07-08T03:20:13;100881.63;;;16.05;100.00
23321;BME280;33376;51.306;4.752;2023-07-08T03:22:39;100883.47;;;16.05;100.00
23321;BME280;33376;51.306;4.752;2023-07-08T03:25:04;100867.03;;;15.98;100.00
23321;BME280;33376;51.306;4.752;2023-07-08T03:27:29;100841.84;;;15.90;100.00
23321;BME280;33376;51.306;4.752;2023-07-08T03:29:55;100825.06;;;15.88;100.00
23321;BME280;33376;51.306;4.752;2023-07-08T03:32:20;100858.59;;;15.81;100.00
23321;BME280;33376;51.306;4.752;2023-07-08T03:34:45;100866.66;;;15.92;100.00
23321;BME280;33376;51.306;4.752;2023-07-08T03:37:10;100859.00;;;15.87;100.00
23321;BME280;33376;51.306;4.752;2023-07-08T03:39:51;100849.47;;;15.83;100.00
23321;BME280;33376;51.306;4.752;2023-07-08T03:42:16;100825.28;;;15.74;100.00
23321;BME280;33376;51.306;4.752;2023-07-08T03:44:45;100825.78;;;15.79;100.00
23321;BME280;33376;51.306;4.752;2023-07-08T03:47:11;100810.91;;;15.75;100.00
23321;BME280;33376;51.306;4.752;2023-07-08T03:49:36;100801.44;;;15.71;100.00
23321;BME280;33376;51.306;4.752;2023-07-08T03:52:02;100801.44;;;15.71;100.00
23321;BME280;33376;51.306;4.752;2023-07-08T03:54:28;100811.75;;;15.64;100.00
23321;BME280;33376;51.306;4.752;2023-07-08T03:56:53;100811.63;;;15.66;100.00
23321;BME280;33376;51.306;4.752;2023-07-08T03:59:21;100805.69;;;15.73;100.00
23321;BME280;33376;51.306;4.752;2023-07-08T04:01:47;100786.03;;;15.74;100.00
23321;BME280;33376;51.306;4.752;2023-07-08T04:04:13;100768.03;;;15.76;100.00
23321;BME280;33376;51.306;4.752;2023-07-08T04:06:39;100772.06;;;15.82;100.00
23321;BME280;33376;51.306;4.752;2023-07-08T04:09:04;100781.66;;;15.84;100.00
23321;BME280;33376;51.306;4.752;2023-07-08T04:11:29;100768.66;;;15.80;100.00
23321;BME280;33376;51.306;4.752;2023-07-08T04:13:55;100758.22;;;15.88;100.00
23321;BME280;33376;51.306;4.752;2023-07-08T04:16:24;100753.38;;;16.04;100.00
23321;BME280;33376;51.306;4.752;2023-07-08T04:18:50;100746.31;;;16.03;100.00
23321;BME280;33376;51.306;4.752;2023-07-08T04:21:18;100749.63;;;16.06;100.00
23321;BME280;33376;51.306;4.752;2023-07-08T04:23:43;100742.53;;;16.05;100.00
23321;BME280;33376;51.306;4.752;2023-07-08T04:26:09;100708.50;;;16.07;100.00
23321;BME280;33376;51.306;4.752;2023-07-08T04:28:35;100709.50;;;16.18;100.00
23321;BME280;33376;51.306;4.752;2023-07-08T04:31:00;100707.88;;;16.26;100.00
23321;BME280;33376;51.306;4.752;2023-07-08T04:33:26;100703.63;;;16.35;100.00
23321;BME280;33376;51.306;4.752;2023-07-08T04:35:51;100712.53;;;16.46;100.00
23321;BME280;33376;51.306;4.752;2023-07-08T04:38:18;100722.75;;;16.52;100.00
23321;BME280;33376;51.306;4.752;2023-07-08T04:40:44;100715.19;;;16.57;100.00
23321;BME280;33376;51.306;4.752;2023-07-08T04:43:09;100721.50;;;16.67;100.00
23321;BME280;33376;51.306;4.752;2023-07-08T04:45:38;100716.00;;;16.80;100.00
23321;BME280;33376;51.306;4.752;2023-07-08T04:48:04;100715.09;;;16.90;100.00
23321;BME280;33376;51.306;4.752;2023-07-08T04:50:43;100697.41;;;16.99;100.00
23321;BME280;33376;51.306;4.752;2023-07-08T04:53:09;100692.88;;;16.99;100.00
23321;BME280;33376;51.306;4.752;2023-07-08T04:55:35;100693.44;;;17.14;100.00
23321;BME280;33376;51.306;4.752;2023-07-08T04:58:01;100671.44;;;17.31;100.00
23321;BME280;33376;51.306;4.752;2023-07-08T05:00:27;100630.53;;;17.49;100.00
23321;BME280;33376;51.306;4.752;2023-07-08T05:02:52;100624.81;;;17.64;100.00
23321;BME280;33376;51.306;4.752;2023-07-08T05:05:19;100614.66;;;17.97;100.00
23321;BME280;33376;51.306;4.752;2023-07-08T05:07:44;100620.88;;;17.98;100.00
23321;BME280;33376;51.306;4.752;2023-07-08T05:10:09;100616.88;;;17.92;100.00
23321;BME280;33376;51.306;4.752;2023-07-08T05:12:35;100636.66;;;17.91;100.00
23321;BME280;33376;51.306;4.752;2023-07-08T05:15:01;100650.00;;;18.12;100.00
23321;BME280;33376;51.306;4.752;2023-07-08T05:17:27;100661.78;;;18.30;100.00
23321;BME280;33376;51.306;4.752;2023-07-08T05:19:53;100667.84;;;18.62;100.00
23321;BME280;33376;51.306;4.752;2023-07-08T05:22:19;100676.59;;;18.73;100.00
23321;BME280;33376;51.306;4.752;2023-07-08T05:24:50;100678.75;;;18.99;100.00
23321;BME280;33376;51.306;4.752;2023-07-08T05:27:17;100685.81;;;19.93;100.00
23321;BME280;33376;51.306;4.752;2023-07-08T05:29:46;100829.44;;;21.21;100.00
23321;BME280;33376;51.306;4.752;2023-07-08T05:32:14;101014.16;;;22.86;100.00
23321;BME280;33376;51.306;4.752;2023-07-08T05:34:43;101174.06;;;23.44;100.00
23321;BME280;33376;51.306;4.752;2023-07-08T05:37:08;101213.66;;;24.56;100.00
23321;BME280;33376;51.306;4.752;2023-07-08T05:39:34;101221.44;;;25.08;100.00
23321;BME280;33376;51.306;4.752;2023-07-08T05:41:59;101248.13;;;25.53;100.00
23321;BME280;33376;51.306;4.752;2023-07-08T05:44:25;101231.38;;;26.20;100.00
23321;BME280;33376;51.306;4.752;2023-07-08T05:46:50;101241.00;;;26.39;100.00
23321;BME280;33376;51.306;4.752;2023-07-08T05:49:16;101250.56;;;26.19;100.00
23321;BME280;33376;51.306;4.752;2023-07-08T05:51:43;101132.19;;;27.89;100.00
23321;BME280;33376;51.306;4.752;2023-07-08T05:54:08;101189.69;;;26.97;100.00
23321;BME280;33376;51.306;4.752;2023-07-08T05:56:33;101096.94;;;28.02;100.00
23321;BME280;33376;51.306;4.752;2023-07-08T05:58:59;101022.44;;;28.58;100.00
23321;BME280;33376;51.306;4.752;2023-07-08T06:01:24;101102.53;;;28.15;100.00
23321;BME280;33376;51.306;4.752;2023-07-08T06:03:49;100999.38;;;29.09;100.00
23321;BME280;33376;51.306;4.752;2023-07-08T06:06:15;101067.84;;;28.09;100.00
23321;BME280;33376;51.306;4.752;2023-07-08T06:08:40;100982.56;;;29.74;100.00
23321;BME280;33376;51.306;4.752;2023-07-08T06:11:05;101045.84;;;28.88;100.00
23321;BME280;33376;51.306;4.752;2023-07-08T06:13:31;100946.66;;;30.10;100.00
23321;BME280;33376;51.306;4.752;2023-07-08T06:15:56;100986.81;;;29.89;100.00
23321;BME280;33376;51.306;4.752;2023-07-08T06:18:21;100932.78;;;29.98;100.00
23321;BME280;33376;51.306;4.752;2023-07-08T06:20:56;100905.69;;;30.49;100.00
23321;BME280;33376;51.306;4.752;2023-07-08T06:23:22;100906.06;;;30.20;100.00
23321;BME280;33376;51.306;4.752;2023-07-08T06:25:48;100765.16;;;31.94;100.00
23321;BME280;33376;51.306;4.752;2023-07-08T06:28:13;100876.38;;;30.10;100.00
23321;BME280;33376;51.306;4.752;2023-07-08T06:30:38;100866.28;;;30.89;100.00
23321;BME280;33376;51.306;4.752;2023-07-08T06:33:04;100823.22;;;31.09;100.00
23321;BME280;33376;51.306;4.752;2023-07-08T06:35:29;100903.53;;;30.96;100.00
23321;BME280;33376;51.306;4.752;2023-07-08T06:37:54;100958.16;;;29.72;100.00
23321;BME280;33376;51.306;4.752;2023-07-08T06:40:20;100756.28;;;31.36;100.00
23321;BME280;33376;51.306;4.752;2023-07-08T06:42:45;100585.81;;;33.43;100.00
23321;BME280;33376;51.306;4.752;2023-07-08T06:45:10;100530.50;;;32.57;100.00
23321;BME280;33376;51.306;4.752;2023-07-08T06:47:36;100619.38;;;32.92;100.00
23321;BME280;33376;51.306;4.752;2023-07-08T06:50:01;100507.78;;;33.95;100.00
23321;BME280;33376;51.306;4.752;2023-07-08T06:52:27;100624.81;;;32.81;100.00
23321;BME280;33376;51.306;4.752;2023-07-08T06:54:52;100613.06;;;32.73;100.00
23321;BME280;33376;51.306;4.752;2023-07-08T06:57:17;100514.03;;;33.79;100.00
23321;BME280;33376;51.306;4.752;2023-07-08T06:59:43;100482.81;;;34.53;100.00
23321;BME280;33376;51.306;4.752;2023-07-08T07:02:08;100498.25;;;34.87;100.00
23321;BME280;33376;51.306;4.752;2023-07-08T07:04:34;100520.72;;;33.02;100.00
23321;BME280;33376;51.306;4.752;2023-07-08T07:07:00;100467.50;;;34.45;100.00
23321;BME280;33376;51.306;4.752;2023-07-08T07:09:25;100289.81;;;35.89;100.00
23321;BME280;33376;51.306;4.752;2023-07-08T07:11:51;100295.09;;;35.90;100.00
23321;BME280;33376;51.306;4.752;2023-07-08T07:14:16;100186.31;;;37.81;100.00
23321;BME280;33376;51.306;4.752;2023-07-08T07:16:41;100420.19;;;34.98;100.00
23321;BME280;33376;51.306;4.752;2023-07-08T07:19:07;100331.28;;;36.57;100.00
23321;BME280;33376;51.306;4.752;2023-07-08T07:21:32;100212.59;;;37.99;100.00
23321;BME280;33376;51.306;4.752;2023-07-08T07:23:57;100348.81;;;36.09;100.00
23321;BME280;33376;51.306;4.752;2023-07-08T07:26:22;100314.88;;;37.29;100.00
23321;BME280;33376;51.306;4.752;2023-07-08T07:28:48;100255.38;;;37.31;100.00
23321;BME280;33376;51.306;4.752;2023-07-08T07:31:13;100229.97;;;37.44;100.00
23321;BME280;33376;51.306;4.752;2023-07-08T07:33:38;100187.34;;;38.31;100.00
23321;BME280;33376;51.306;4.752;2023-07-08T07:36:03;100181.25;;;37.33;100.00
23321;BME280;33376;51.306;4.752;2023-07-08T07:38:29;100170.50;;;37.92;100.00
23321;BME280;33376;51.306;4.752;2023-07-08T07:40:55;100172.75;;;37.70;100.00
23321;BME280;33376;51.306;4.752;2023-07-08T07:43:21;100067.94;;;38.32;100.00
23321;BME280;33376;51.306;4.752;2023-07-08T07:45:50;100155.84;;;37.51;100.00
23321;BME280;33376;51.306;4.752;2023-07-08T07:48:15;100346.00;;;35.83;100.00
23321;BME280;33376;51.306;4.752;2023-07-08T07:50:44;100410.06;;;34.87;100.00
23321;BME280;33376;51.306;4.752;2023-07-08T07:53:09;100388.22;;;35.57;100.00
23321;BME280;33376;51.306;4.752;2023-07-08T07:55:34;100187.38;;;38.16;100.00
23321;BME280;33376;51.306;4.752;2023-07-08T07:57:59;100118.84;;;38.56;100.00
23321;BME280;33376;51.306;4.752;2023-07-08T08:00:24;100146.75;;;39.28;100.00
23321;BME280;33376;51.306;4.752;2023-07-08T08:02:50;100069.75;;;39.10;100.00
23321;BME280;33376;51.306;4.752;2023-07-08T08:05:15;100116.03;;;39.15;100.00
23321;BME280;33376;51.306;4.752;2023-07-08T08:07:40;100092.38;;;39.22;100.00
23321;BME280;33376;51.306;4.752;2023-07-08T08:10:06;100171.50;;;39.59;100.00
23321;BME280;33376;51.306;4.752;2023-07-08T08:12:31;100139.63;;;40.42;100.00
23321;BME280;33376;51.306;4.752;2023-07-08T08:14:56;100113.34;;;40.53;100.00
23321;BME280;33376;51.306;4.752;2023-07-08T08:17:22;100060.22;;;39.21;100.00
23321;BME280;33376;51.306;4.752;2023-07-08T08:19:47;100222.78;;;38.49;100.00
23321;BME280;33376;51.306;4.752;2023-07-08T08:22:12;100295.09;;;37.87;100.00
23321;BME280;33376;51.306;4.752;2023-07-08T08:24:37;100223.94;;;39.65;100.00
23321;BME280;33376;51.306;4.752;2023-07-08T08:27:03;99927.88;;;40.53;100.00
23321;BME280;33376;51.306;4.752;2023-07-08T08:29:28;100336.94;;;36.77;100.00
23321;BME280;33376;51.306;4.752;2023-07-08T08:31:53;100027.16;;;39.87;100.00
23321;BME280;33376;51.306;4.752;2023-07-08T08:34:19;100108.94;;;39.37;100.00
23321;BME280;33376;51.306;4.752;2023-07-08T08:36:44;100098.44;;;39.29;100.00
23321;BME280;33376;51.306;4.752;2023-07-08T08:39:10;100098.03;;;39.12;100.00
23321;BME280;33376;51.306;4.752;2023-07-08T08:41:37;100154.31;;;38.54;100.00
23321;BME280;33376;51.306;4.752;2023-07-08T08:44:03;100025.34;;;40.20;100.00
23321;BME280;33376;51.306;4.752;2023-07-08T08:51:41;100053.22;;;40.57;100.00
23321;BME280;33376;51.306;4.752;2023-07-08T08:54:06;99983.28;;;38.98;100.00
23321;BME280;33376;51.306;4.752;2023-07-08T08:59:37;100346.94;;;36.46;100.00
23321;BME280;33376;51.306;4.752;2023-07-08T09:01:58;100247.28;;;37.10;100.00
23321;BME280;33376;51.306;4.752;2023-07-08T09:04:28;100177.63;;;38.38;100.00
23321;BME280;33376;51.306;4.752;2023-07-08T09:06:58;100164.00;;;36.86;100.00
23321;BME280;33376;51.306;4.752;2023-07-08T09:09:28;100012.41;;;38.57;100.00
23321;BME280;33376;51.306;4.752;2023-07-08T09:11:57;99901.56;;;39.19;100.00
23321;BME280;33376;51.306;4.752;2023-07-08T09:14:26;100266.75;;;37.40;100.00
23321;BME280;33376;51.306;4.752;2023-07-08T09:19:33;100270.25;;;37.20;100.00
23321;BME280;33376;51.306;4.752;2023-07-08T09:24:37;99975.78;;;40.08;100.00
23321;BME280;33376;51.306;4.752;2023-07-08T09:27:05;99917.09;;;40.71;100.00
23321;BME280;33376;51.306;4.752;2023-07-08T09:29:30;100001.13;;;41.00;100.00
23321;BME280;33376;51.306;4.752;2023-07-08T09:31:56;99788.16;;;41.48;100.00
23321;BME280;33376;51.306;4.752;2023-07-08T09:34:23;99852.69;;;40.26;100.00
23321;BME280;33376;51.306;4.752;2023-07-08T09:37:00;100082.75;;;39.15;100.00
23321;BME280;33376;51.306;4.752;2023-07-08T09:39:25;100035.66;;;37.92;100.00
23321;BME280;33376;51.306;4.752;2023-07-08T09:41:52;100148.91;;;37.89;100.00
23321;BME280;33376;51.306;4.752;2023-07-08T09:44:19;100007.03;;;38.76;100.00
23321;BME280;33376;51.306;4.752;2023-07-08T09:46:48;100034.84;;;38.99;100.00
23321;BME280;33376;51.306;4.752;2023-07-08T09:49:17;100096.13;;;39.08;100.00
23321;BME280;33376;51.306;4.752;2023-07-08T09:51:44;100096.88;;;37.51;100.00
23321;BME280;33376;51.306;4.752;2023-07-08T09:54:09;100173.47;;;37.20;100.00
23321;BME280;33376;51.306;4.752;2023-07-08T09:56:34;99937.97;;;38.79;100.00
23321;BME280;33376;51.306;4.752;2023-07-08T09:59:00;100084.00;;;38.35;100.00
23321;BME280;33376;51.306;4.752;2023-07-08T10:01:26;100154.16;;;37.60;100.00
23321;BME280;33376;51.306;4.752;2023-07-08T10:03:57;100032.97;;;38.41;100.00
23321;BME280;33376;51.306;4.752;2023-07-08T10:06:25;99945.97;;;40.14;100.00
23321;BME280;33376;51.306;4.752;2023-07-08T10:08:52;99921.81;;;40.70;100.00
23321;BME280;33376;51.306;4.752;2023-07-08T10:11:28;100018.66;;;38.78;100.00
23321;BME280;33376;51.306;4.752;2023-07-08T10:13:56;99990.81;;;37.90;100.00
23321;BME280;33376;51.306;4.752;2023-07-08T10:16:28;99831.78;;;39.55;100.00
23321;BME280;33376;51.306;4.752;2023-07-08T10:18:54;99916.09;;;37.80;100.00
23321;BME280;33376;51.306;4.752;2023-07-08T10:21:26;100011.34;;;37.74;100.00
23321;BME280;33376;51.306;4.752;2023-07-08T10:23:57;99979.53;;;37.62;100.00
23321;BME280;33376;51.306;4.752;2023-07-08T10:26:30;99947.50;;;37.46;100.00
23321;BME280;33376;51.306;4.752;2023-07-08T10:29:00;99874.59;;;39.01;100.00
23321;BME280;33376;51.306;4.752;2023-07-08T10:31:35;99841.00;;;37.97;100.00
23321;BME280;33376;51.306;4.752;2023-07-08T10:39:41;99900.78;;;38.47;100.00
23321;BME280;33376;51.306;4.752;2023-07-08T10:41:53;100249.94;;;37.56;100.00
23321;BME280;33376;51.306;4.752;2023-07-08T10:44:26;100101.25;;;37.17;100.00
23321;BME280;33376;51.306;4.752;2023-07-08T10:49:46;99869.88;;;38.68;100.00
23321;BME280;33376;51.306;4.752;2023-07-08T10:52:35;99930.56;;;37.62;100.00
23321;BME280;33376;51.306;4.752;2023-07-08T11:00:19;100118.16;;;37.95;100.00
23321;BME280;33376;51.306;4.752;2023-07-08T11:07:59;99975.06;;;37.86;100.00
23321;BME280;33376;51.306;4.752;2023-07-08T11:10:34;99950.44;;;37.79;100.00
23321;BME280;33376;51.306;4.752;2023-07-08T11:13:14;100026.63;;;38.84;100.00
23321;BME280;33376;51.306;4.752;2023-07-08T11:21:10;99969.69;;;38.20;100.00
23321;BME280;33376;51.306;4.752;2023-07-08T11:23:43;100089.13;;;37.78;100.00
23321;BME280;33376;51.306;4.752;2023-07-08T11:28:44;99910.53;;;38.78;100.00
23321;BME280;33376;51.306;4.752;2023-07-08T11:31:10;99783.09;;;39.86;100.00
23321;BME280;33376;51.306;4.752;2023-07-08T11:33:37;100101.72;;;38.39;100.00
23321;BME280;33376;51.306;4.752;2023-07-08T11:36:03;99799.78;;;39.99;100.00
23321;BME280;33376;51.306;4.752;2023-07-08T11:38:29;99974.00;;;39.13;100.00
23321;BME280;33376;51.306;4.752;2023-07-08T11:40:58;99846.22;;;38.81;100.00
23321;BME280;33376;51.306;4.752;2023-07-08T11:43:25;99930.00;;;38.29;100.00
23321;BME280;33376;51.306;4.752;2023-07-08T11:45:53;100166.22;;;37.04;100.00
23321;BME280;33376;51.306;4.752;2023-07-08T11:48:26;100215.03;;;36.68;100.00
23321;BME280;33376;51.306;4.752;2023-07-08T11:50:53;100075.75;;;36.74;100.00
23321;BME280;33376;51.306;4.752;2023-07-08T11:56:05;99744.63;;;38.38;100.00
23321;BME280;33376;51.306;4.752;2023-07-08T12:01:26;99962.16;;;37.51;100.00
23321;BME280;33376;51.306;4.752;2023-07-08T12:04:28;100034.34;;;37.00;100.00
23321;BME280;33376;51.306;4.752;2023-07-08T12:06:46;99908.28;;;36.99;100.00
23321;BME280;33376;51.306;4.752;2023-07-08T12:09:13;100120.31;;;36.93;100.00
23321;BME280;33376;51.306;4.752;2023-07-08T12:11:40;100024.09;;;36.85;100.00
23321;BME280;33376;51.306;4.752;2023-07-08T12:14:05;100168.22;;;36.52;100.00
23321;BME280;33376;51.306;4.752;2023-07-08T12:16:32;100020.84;;;36.16;100.00
23321;BME280;33376;51.306;4.752;2023-07-08T12:18:57;100009.44;;;36.85;100.00
23321;BME280;33376;51.306;4.752;2023-07-08T12:21:24;100000.28;;;36.59;100.00
23321;BME280;33376;51.306;4.752;2023-07-08T12:23:51;100184.22;;;37.07;100.00
23321;BME280;33376;51.306;4.752;2023-07-08T12:26:16;100204.50;;;36.70;100.00
23321;BME280;33376;51.306;4.752;2023-07-08T12:28:42;100142.75;;;37.07;100.00
23321;BME280;33376;51.306;4.752;2023-07-08T12:31:20;100280.13;;;36.54;100.00
23321;BME280;33376;51.306;4.752;2023-07-08T12:33:46;99976.25;;;37.20;100.00
23321;BME280;33376;51.306;4.752;2023-07-08T12:36:22;100153.78;;;36.97;100.00
23321;BME280;33376;51.306;4.752;2023-07-08T12:38:50;100329.44;;;36.72;100.00
23321;BME280;33376;51.306;4.752;2023-07-08T12:41:22;100326.91;;;35.76;100.00
23321;BME280;33376;51.306;4.752;2023-07-08T12:43:48;100090.66;;;36.12;100.00
23321;BME280;33376;51.306;4.752;2023-07-08T12:46:14;100035.78;;;36.20;100.00
23321;BME280;33376;51.306;4.752;2023-07-08T12:48:40;100357.44;;;35.65;100.00
23321;BME280;33376;51.306;4.752;2023-07-08T12:51:09;100298.19;;;35.72;100.00
23321;BME280;33376;51.306;4.752;2023-07-08T12:53:35;100390.53;;;35.65;100.00
23321;BME280;33376;51.306;4.752;2023-07-08T12:56:00;100063.75;;;35.46;100.00
23321;BME280;33376;51.306;4.752;2023-07-08T12:58:27;100254.03;;;34.81;100.00
23321;BME280;33376;51.306;4.752;2023-07-08T13:00:53;100377.47;;;35.17;100.00
23321;BME280;33376;51.306;4.752;2023-07-08T13:03:20;100491.59;;;34.83;100.00
23321;BME280;33376;51.306;4.752;2023-07-08T13:05:47;100425.19;;;34.84;100.00
23321;BME280;33376;51.306;4.752;2023-07-08T13:08:14;100402.09;;;34.52;100.00
23321;BME280;33376;51.306;4.752;2023-07-08T13:10:40;100565.31;;;34.08;100.00
23321;BME280;33376;51.306;4.752;2023-07-08T13:13:07;100436.31;;;34.12;100.00
23321;BME280;33376;51.306;4.752;2023-07-08T13:15:34;100459.44;;;35.05;100.00
23321;BME280;33376;51.306;4.752;2023-07-08T13:18:02;100451.75;;;35.62;100.00
23321;BME280;33376;51.306;4.752;2023-07-08T13:20:27;100349.34;;;36.06;100.00
23321;BME280;33376;51.306;4.752;2023-07-08T13:22:57;100184.28;;;36.13;100.00
23321;BME280;33376;51.306;4.752;2023-07-08T13:25:28;100272.41;;;35.62;100.00
23321;BME280;33376;51.306;4.752;2023-07-08T13:30:38;100233.97;;;35.28;100.00